Time;durP1;ratioP1;P1;durP2;ratioP2;P2;SDS_P1;SDS_P2;PMS_P1;PMS_P2;Temp;Humidity;BMP_temperature;BMP_pressure;BME280_temperature;BME280_humidity;BME280_pressure;Samples;Min_cycle;Max_cycle;Signal;HPM_P1;HPM_P2
2022/09/09 00:49:53;;;;;;;1.50;1.30;;;14.80;99.90;;;;;;4996925;28;20459;-94
2022/09/09 00:52:33;;;;;;;2.10;1.10;;;14.80;99.90;;;;;;4996193;28;20475;-93
2022/09/09 00:55:07;;;;;;;1.40;1.10;;;14.90;99.90;;;;;;4995908;28;20475;-93
2022/09/09 00:57:35;;;;;;;1.83;1.13;;;14.90;99.90;;;;;;4995842;28;20509;-94
2022/09/09 01:00:20;;;;;;;2.13;1.30;;;14.90;99.90;;;;;;5001001;28;20471;-95
2022/09/09 01:02:57;;;;;;;1.27;1.00;;;14.90;99.90;;;;;;5001017;28;20486;-95
2022/09/09 01:05:30;;;;;;;2.43;1.20;;;14.90;99.90;;;;;;5001261;28;20479;-94
2022/09/09 01:08:01;;;;;;;1.43;1.00;;;14.90;99.90;;;;;;5000798;28;20514;-93
2022/09/09 01:10:38;;;;;;;1.83;0.97;;;14.90;99.90;;;;;;4991464;28;20511;-93
2022/09/09 01:13:15;;;;;;;1.83;1.30;;;14.80;99.90;;;;;;4988867;28;20988;-92
2022/09/09 01:15:46;;;;;;;1.47;1.20;;;14.80;99.90;;;;;;4988739;28;20487;-93
2022/09/09 01:18:17;;;;;;;1.57;1.10;;;14.80;99.90;;;;;;4988199;28;20961;-92
2022/09/09 01:20:56;;;;;;;1.20;1.10;;;14.80;99.90;;;;;;4989892;28;20478;-92
2022/09/09 03:32:47;;;;;;;1.53;1.03;;;14.50;99.90;;;;;;5352868;23;20551;-92
2022/09/09 03:35:37;;;;;;;1.20;1.03;;;14.40;99.90;;;;;;4968909;29;20437;-93
2022/09/09 03:38:05;;;;;;;2.90;1.10;;;14.40;99.90;;;;;;4978424;28;20445;-92
2022/09/09 05:24:29;;;;;;;1.73;1.17;;;14.70;99.90;;;;;;4979532;28;20492;-95
2022/09/09 08:12:41;;;;;;;1.50;1.00;;;18.40;99.90;;;;;;4323145;26;20474;-94
2022/09/09 08:15:09;;;;;;;1.90;1.30;;;18.50;99.90;;;;;;5000691;28;20455;-95
2022/09/09 08:17:37;;;;;;;1.20;1.10;;;18.60;99.90;;;;;;5004644;28;20454;-93
2022/09/09 08:20:07;;;;;;;1.13;1.03;;;18.70;99.90;;;;;;5007803;28;20983;-94
2022/09/09 08:22:34;;;;;;;2.10;1.53;;;18.80;99.90;;;;;;5015200;28;20512;-95
2022/09/09 08:25:02;;;;;;;2.90;1.50;;;18.90;99.90;;;;;;5017645;28;20482;-93
2022/09/09 08:27:29;;;;;;;1.30;1.10;;;19.10;99.90;;;;;;5018088;28;20466;-95
2022/09/09 08:29:58;;;;;;;3.40;1.40;;;19.10;99.90;;;;;;5013889;28;20467;-93
2022/09/09 08:32:26;;;;;;;2.63;1.40;;;19.30;99.90;;;;;;5014897;28;20509;-94
2022/09/09 08:34:52;;;;;;;3.67;1.67;;;19.40;99.90;;;;;;5019259;28;20463;-94
2022/09/09 08:37:23;;;;;;;1.53;1.17;;;19.40;99.90;;;;;;5017351;28;20538;-94
2022/09/09 08:39:50;;;;;;;1.57;1.30;;;19.60;99.90;;;;;;5016822;28;20478;-95
2022/09/09 08:42:35;;;;;;;1.77;1.30;;;19.70;99.90;;;;;;5014661;28;20545;-94
2022/09/09 08:45:20;;;;;;;1.20;1.00;;;19.70;99.90;;;;;;5008278;28;20494;-94
2022/09/09 08:48:00;;;;;;;1.87;1.47;;;19.80;99.90;;;;;;4997121;28;20991;-92
2022/09/09 08:50:28;;;;;;;2.10;1.37;;;19.90;99.90;;;;;;4998468;28;20565;-93
2022/09/09 08:53:02;;;;;;;3.53;1.40;;;20.00;99.90;;;;;;5000067;28;20459;-92
2022/09/09 08:55:36;;;;;;;1.13;0.93;;;20.00;99.90;;;;;;4999140;28;20466;-92
2022/09/09 08:58:10;;;;;;;1.77;1.33;;;20.10;99.90;;;;;;4997803;28;20509;-93
2022/09/09 09:00:49;;;;;;;1.57;1.23;;;20.30;99.90;;;;;;4998772;28;21026;-93
2022/09/09 09:03:23;;;;;;;1.53;1.40;;;20.60;99.90;;;;;;4998933;28;20866;-92
2022/09/09 09:06:02;;;;;;;2.20;1.20;;;20.70;99.90;;;;;;4999249;28;20458;-93
2022/09/09 09:08:35;;;;;;;1.53;1.00;;;20.60;99.90;;;;;;5001222;28;20463;-92
2022/09/09 09:11:02;;;;;;;1.97;1.57;;;20.50;99.90;;;;;;5001829;28;20513;-92
2022/09/09 09:13:36;;;;;;;1.40;1.30;;;20.60;99.90;;;;;;4999568;28;20542;-92
2022/09/09 09:16:15;;;;;;;2.10;1.20;;;20.50;99.90;;;;;;5005704;28;20463;-92
2022/09/09 09:18:42;;;;;;;2.03;1.20;;;20.20;99.90;;;;;;5003913;28;20483;-92
2022/09/09 09:21:16;;;;;;;1.10;1.00;;;19.80;99.90;;;;;;5004557;28;20497;-93
2022/09/09 09:23:50;;;;;;;2.47;1.10;;;19.30;99.90;;;;;;5001521;28;20539;-92
2022/09/09 09:26:18;;;;;;;2.70;1.13;;;19.00;99.90;;;;;;5002448;28;20470;-92
2022/09/09 09:28:48;;;;;;;2.30;1.20;;;18.70;99.90;;;;;;4998974;28;20462;-91
2022/09/09 09:31:17;;;;;;;0.90;0.80;;;18.30;99.90;;;;;;4997556;28;20490;-92
2022/09/09 09:33:50;;;;;;;3.07;1.13;;;18.10;99.90;;;;;;4998013;28;20462;-92
2022/09/09 09:36:17;;;;;;;3.80;1.70;;;18.00;99.90;;;;;;4999562;28;20860;-91
2022/09/09 09:38:56;;;;;;;1.20;1.10;;;18.10;99.90;;;;;;4998647;28;20470;-91
2022/09/09 09:41:34;;;;;;;2.37;1.40;;;18.40;99.90;;;;;;4999730;28;20486;-90
2022/09/09 09:44:02;;;;;;;3.27;1.60;;;18.70;99.90;;;;;;5003282;28;20462;-92
2022/09/09 09:46:30;;;;;;;2.50;1.50;;;18.70;99.90;;;;;;5001200;28;20959;-90
2022/09/09 09:49:01;;;;;;;1.97;1.00;;;18.60;99.90;;;;;;5009424;28;20467;-93
2022/09/09 09:51:30;;;;;;;1.80;1.10;;;18.80;99.90;;;;;;5007773;28;20483;-91
2022/09/09 09:54:09;;;;;;;1.47;1.00;;;19.00;99.90;;;;;;4997032;28;20469;-91
2022/09/09 09:56:37;;;;;;;2.37;1.50;;;19.30;99.90;;;;;;4998541;28;20462;-91
2022/09/09 09:59:04;;;;;;;2.80;1.17;;;19.60;99.90;;;;;;4998519;28;20454;-92
2022/09/09 10:01:34;;;;;;;1.83;1.00;;;19.80;99.90;;;;;;4996594;28;21024;-91
2022/09/09 10:04:03;;;;;;;1.33;1.10;;;20.00;99.90;;;;;;4995546;28;20481;-91
2022/09/09 10:06:34;;;;;;;2.43;1.20;;;20.30;99.90;;;;;;4996486;28;20473;-91
2022/09/09 10:09:04;;;;;;;1.77;1.37;;;20.60;99.90;;;;;;5000122;28;20490;-92
2022/09/09 10:11:45;;;;;;;2.53;1.13;;;20.80;99.90;;;;;;4999575;28;20533;-91
2022/09/09 10:14:20;;;;;;;2.90;1.40;;;21.10;99.90;;;;;;4998114;28;20467;-92
2022/09/09 10:17:06;;;;;;;1.30;1.20;;;21.20;99.90;;;;;;4998277;28;20447;-92
2022/09/09 10:19:35;;;;;;;1.47;1.20;;;21.40;99.90;;;;;;4997733;28;21063;-92
2022/09/09 10:22:15;;;;;;;1.83;1.40;;;21.60;99.90;;;;;;4996525;28;20573;-91
2022/09/09 10:25:18;;;;;;;1.23;1.00;;;21.70;99.90;;;;;;4998124;28;20471;-92
2022/09/09 10:27:58;;;;;;;2.83;1.17;;;21.50;99.90;;;;;;4997620;28;21109;-92
2022/09/09 10:30:33;;;;;;;1.10;1.00;;;21.30;99.90;;;;;;4997617;28;20476;-92
2022/09/09 10:33:09;;;;;;;1.40;1.30;;;21.10;99.90;;;;;;4997689;28;20457;-92
2022/09/09 10:35:45;;;;;;;1.93;1.40;;;20.90;99.90;;;;;;4997969;28;20481;-92
2022/09/09 10:38:16;;;;;;;2.40;1.13;;;20.90;99.90;;;;;;4998885;28;20517;-92
2022/09/09 10:40:51;;;;;;;2.43;1.80;;;20.90;99.90;;;;;;5002467;28;20588;-92
2022/09/09 10:43:37;;;;;;;1.00;0.90;;;20.70;99.90;;;;;;4999482;28;20486;-93
2022/09/09 10:46:12;;;;;;;2.33;1.50;;;20.60;99.90;;;;;;4997669;28;20506;-92
2022/09/09 10:48:55;;;;;;;1.10;1.00;;;20.50;99.90;;;;;;4999954;28;20517;-93
2022/09/09 10:51:34;;;;;;;2.47;1.50;;;20.50;99.90;;;;;;5001207;28;20484;-92
2022/09/09 10:54:13;;;;;;;3.33;1.67;;;20.50;99.90;;;;;;4997098;28;20471;-92
2022/09/09 10:56:41;;;;;;;2.63;1.40;;;20.40;99.90;;;;;;4996613;28;20513;-92
2022/09/09 10:59:15;;;;;;;1.10;1.00;;;20.40;99.90;;;;;;4997874;28;20475;-92
2022/09/09 11:01:47;;;;;;;1.90;1.50;;;20.50;99.90;;;;;;4995479;28;20859;-90
2022/09/09 11:04:22;;;;;;;2.03;1.30;;;20.50;99.90;;;;;;4995490;28;20510;-92
2022/09/09 11:06:53;;;;;;;3.60;1.83;;;20.40;99.90;;;;;;4995280;28;20473;-91
2022/09/09 11:09:23;;;;;;;1.13;1.00;;;20.50;99.90;;;;;;4996613;28;20455;-92
2022/09/09 11:11:54;;;;;;;1.77;1.10;;;20.50;99.90;;;;;;4996451;28;20870;-92
2022/09/09 11:14:29;;;;;;;2.60;1.63;;;20.50;99.90;;;;;;4997972;28;20470;-92
2022/09/09 11:17:00;;;;;;;1.67;1.13;;;20.50;99.90;;;;;;5009230;28;20459;-93
2022/09/09 11:19:34;;;;;;;1.10;1.00;;;20.40;99.90;;;;;;4998766;28;20999;-92
2022/09/09 11:22:04;;;;;;;2.23;1.33;;;20.20;99.90;;;;;;4996989;28;20906;-92
2022/09/09 11:24:35;;;;;;;1.77;1.20;;;20.00;99.90;;;;;;4996909;28;20459;-91
2022/09/09 11:27:09;;;;;;;1.00;0.90;;;19.70;99.90;;;;;;4996645;28;20447;-91
2022/09/09 11:30:04;;;;;;;1.23;1.10;;;19.50;99.90;;;;;;4996669;28;21030;-91
2022/09/09 11:32:49;;;;;;;2.07;1.13;;;19.20;99.90;;;;;;4993149;28;20959;-91
2022/09/09 11:35:32;;;;;;;2.00;1.20;;;19.00;99.90;;;;;;4995103;28;20462;-91
2022/09/09 11:38:26;;;;;;;1.23;1.00;;;19.00;99.90;;;;;;4995713;28;20467;-91
2022/09/09 11:41:01;;;;;;;1.30;1.10;;;18.90;99.90;;;;;;4995727;28;21022;-92
2022/09/09 11:43:32;;;;;;;1.00;0.90;;;18.90;99.90;;;;;;4995298;28;21038;-92
2022/09/09 11:46:02;;;;;;;1.43;0.97;;;18.70;99.90;;;;;;4995572;28;20466;-91
2022/09/09 11:48:35;;;;;;;2.20;0.97;;;18.60;99.90;;;;;;4994854;28;20897;-92
2022/09/09 11:51:07;;;;;;;1.10;0.70;;;18.60;99.90;;;;;;4994990;28;20483;-91
2022/09/09 11:53:35;;;;;;;0.80;0.70;;;18.70;99.90;;;;;;4994791;28;20459;-92
2022/09/09 11:56:14;;;;;;;1.03;0.80;;;18.80;99.90;;;;;;4995478;28;20470;-92
2022/09/09 11:58:45;;;;;;;0.90;0.70;;;19.00;99.90;;;;;;4997313;28;20488;-92
2022/09/09 12:01:29;;;;;;;0.90;0.80;;;19.20;99.90;;;;;;5002131;28;20577;-91
2022/09/09 12:04:12;;;;;;;0.80;0.60;;;19.20;99.90;;;;;;5001275;28;20530;-93
2022/09/09 12:06:46;;;;;;;0.90;0.70;;;19.20;99.90;;;;;;5003881;28;20470;-92
2022/09/09 12:09:23;;;;;;;1.00;0.80;;;19.20;99.90;;;;;;5003256;28;20516;-92
2022/09/09 12:11:50;;;;;;;0.80;0.70;;;19.40;99.90;;;;;;5001152;28;20521;-91
2022/09/09 12:14:36;;;;;;;1.20;0.90;;;19.60;99.90;;;;;;5000708;28;20462;-92
2022/09/09 12:17:18;;;;;;;1.30;0.90;;;19.80;99.90;;;;;;5003712;28;20514;-92
2022/09/09 12:19:48;;;;;;;0.80;0.70;;;20.20;99.90;;;;;;5006882;28;20586;-92
2022/09/09 12:22:27;;;;;;;0.93;0.83;;;20.60;99.90;;;;;;5018147;28;20545;-95
2022/09/09 12:48:15;;;;;;;4.27;1.23;;;21.00;99.90;;;;;;3463794;23;20262;-92
2022/09/09 12:50:47;;;;;;;0.80;0.70;;;20.80;99.90;;;;;;4976699;28;20472;-92
2022/09/09 12:53:22;;;;;;;0.80;0.80;;;20.70;99.90;;;;;;4980635;28;20466;-92
2022/09/09 12:55:54;;;;;;;1.47;0.93;;;20.60;99.90;;;;;;4979508;28;20467;-91
2022/09/09 12:58:21;;;;;;;1.10;0.90;;;20.80;99.90;;;;;;4978138;28;20470;-92
2022/09/09 13:00:53;;;;;;;1.40;1.10;;;20.90;99.90;;;;;;4982481;28;20475;-92
2022/09/09 13:03:22;;;;;;;1.00;0.77;;;20.90;99.90;;;;;;4983468;28;20483;-93
2022/09/09 13:05:50;;;;;;;1.60;0.90;;;20.80;99.90;;;;;;4985859;28;20439;-94
2022/09/09 13:08:20;;;;;;;1.53;0.80;;;20.80;99.90;;;;;;4982411;28;20471;-92
2022/09/09 13:10:54;;;;;;;2.70;1.00;;;20.70;99.90;;;;;;4981093;28;20487;-92
2022/09/09 13:13:23;;;;;;;1.97;1.20;;;20.70;99.90;;;;;;4980583;28;20565;-92
2022/09/09 13:15:53;;;;;;;1.20;0.80;;;20.50;99.90;;;;;;4982027;28;20466;-92
2022/09/09 13:18:23;;;;;;;2.03;1.00;;;20.60;99.90;;;;;;4982480;28;20468;-92
2022/09/09 13:20:52;;;;;;;1.67;0.93;;;21.00;99.90;;;;;;4986480;28;20494;-92
2022/09/09 13:23:20;;;;;;;3.03;1.00;;;21.20;99.90;;;;;;4984675;28;20480;-91
2022/09/09 13:25:55;;;;;;;1.00;0.77;;;21.50;99.90;;;;;;4986817;28;20475;-93
2022/09/09 13:28:24;;;;;;;2.13;1.07;;;21.80;99.90;;;;;;4990054;28;20982;-92
2022/09/09 13:31:02;;;;;;;1.30;0.80;;;21.90;99.90;;;;;;4992936;28;20505;-93
2022/09/09 13:33:36;;;;;;;1.43;0.80;;;21.90;99.90;;;;;;4994463;28;20473;-95
2022/09/09 13:36:06;;;;;;;2.70;0.83;;;22.00;99.90;;;;;;5001086;28;20440;-94
2022/09/09 13:38:46;;;;;;;1.63;1.00;;;22.10;99.90;;;;;;4999757;28;20448;-93
2022/09/09 13:41:23;;;;;;;1.33;1.10;;;22.10;99.90;;;;;;5000329;28;20485;-94
2022/09/09 13:43:51;;;;;;;1.30;0.90;;;21.80;99.90;;;;;;4996745;28;20515;-94
2022/09/09 13:46:46;;;;;;;1.77;0.73;;;21.70;99.90;;;;;;5000849;28;20452;-94
2022/09/09 13:49:33;;;;;;;0.80;0.70;;;21.80;99.90;;;;;;4996963;28;20560;-94
2022/09/09 13:52:13;;;;;;;0.97;0.73;;;22.10;99.90;;;;;;4995738;28;20503;-93
2022/09/09 13:54:40;;;;;;;2.67;0.93;;;22.40;99.90;;;;;;4996906;28;20444;-94
2022/09/09 14:25:56;;;;;;;1.00;0.80;;;23.00;99.80;;;;;;2380730;23;20493;-94
2022/09/09 14:28:23;;;;;;;1.73;0.80;;;23.00;99.30;;;;;;4990535;28;20458;-94
2022/09/09 14:30:50;;;;;;;1.87;0.90;;;23.10;99.10;;;;;;4979853;28;20458;-92
2022/09/09 14:33:17;;;;;;;1.00;0.90;;;23.10;99.30;;;;;;4982480;28;20461;-92
2022/09/09 14:35:44;;;;;;;1.30;0.93;;;23.10;97.70;;;;;;4982252;28;20485;-93
2022/09/09 14:38:11;;;;;;;1.50;0.80;;;23.00;97.70;;;;;;4981933;28;21014;-91
2022/09/09 14:40:39;;;;;;;1.00;0.73;;;23.00;98.30;;;;;;4975316;28;20477;-92
2022/09/09 14:43:07;;;;;;;1.50;0.87;;;23.00;99.00;;;;;;4974878;28;20483;-92
2022/09/09 14:45:37;;;;;;;1.20;0.73;;;23.00;95.80;;;;;;4975695;28;20861;-90
2022/09/09 14:48:04;;;;;;;3.23;1.00;;;22.80;97.00;;;;;;4974195;28;20987;-89
2022/09/09 14:50:31;;;;;;;1.57;0.80;;;22.80;98.10;;;;;;4976512;28;20493;-90
2022/09/09 14:52:58;;;;;;;1.73;0.80;;;22.80;97.80;;;;;;4975372;28;20477;-93
2022/09/09 14:55:24;;;;;;;0.97;0.77;;;22.70;97.70;;;;;;4974684;28;20480;-92
2022/09/09 14:57:51;;;;;;;3.10;0.80;;;22.70;97.00;;;;;;4974866;28;20480;-93
2022/09/09 15:00:19;;;;;;;2.60;1.63;;;22.70;98.20;;;;;;4973585;28;20472;-93
2022/09/09 15:02:46;;;;;;;2.60;0.93;;;22.70;97.50;;;;;;4973276;28;20493;-92
2022/09/09 15:05:13;;;;;;;5.37;1.00;;;22.80;98.00;;;;;;4973799;28;20488;-90
2022/09/09 15:07:40;;;;;;;4.00;1.10;;;22.80;97.70;;;;;;4973063;28;20473;-94
2022/09/09 15:10:08;;;;;;;1.30;0.80;;;22.90;97.40;;;;;;4973631;28;20535;-92
2022/09/09 15:12:35;;;;;;;1.40;0.80;;;22.90;97.80;;;;;;4972815;28;20497;-92
2022/09/09 15:15:03;;;;;;;2.50;1.00;;;22.80;97.60;;;;;;4973273;28;20491;-93
2022/09/09 15:17:32;;;;;;;2.73;1.10;;;22.70;98.10;;;;;;4972553;28;20769;-92
2022/09/09 15:19:58;;;;;;;1.83;1.00;;;22.90;98.40;;;;;;4973334;28;20474;-92
2022/09/09 15:22:25;;;;;;;0.90;0.77;;;22.80;97.30;;;;;;4972876;28;20533;-93
2022/09/09 15:24:52;;;;;;;1.40;0.90;;;22.70;98.40;;;;;;4972554;28;20500;-92
2022/09/09 15:27:19;;;;;;;2.30;0.90;;;22.80;97.70;;;;;;4976735;28;20479;-93
2022/09/09 15:29:46;;;;;;;1.57;1.17;;;22.70;98.20;;;;;;4977048;28;20467;-93
2022/09/09 15:32:13;;;;;;;1.27;0.87;;;22.80;99.20;;;;;;4975560;28;20486;-94
2022/09/09 15:34:42;;;;;;;1.83;1.10;;;22.70;97.20;;;;;;4976307;28;20849;-93
2022/09/09 15:37:12;;;;;;;2.33;1.10;;;22.60;97.60;;;;;;4975977;28;20485;-93
2022/09/09 15:39:40;;;;;;;1.73;1.03;;;22.50;97.70;;;;;;4976655;28;20491;-93
2022/09/09 15:42:08;;;;;;;1.00;0.90;;;22.30;98.10;;;;;;4977513;28;20494;-93
2022/09/09 15:44:40;;;;;;;3.93;1.07;;;22.10;98.60;;;;;;4978236;28;20484;-94
2022/09/09 15:47:06;;;;;;;1.33;1.10;;;21.80;98.60;;;;;;4978008;28;20467;-93
2022/09/09 15:49:33;;;;;;;2.00;0.83;;;21.50;97.30;;;;;;4978325;28;21053;-93
2022/09/09 15:52:03;;;;;;;1.67;1.00;;;21.20;97.90;;;;;;4985558;28;20511;-93
2022/09/09 15:54:33;;;;;;;1.70;0.80;;;21.00;97.70;;;;;;4979472;28;20495;-92
2022/09/09 15:57:01;;;;;;;1.40;0.90;;;20.80;98.00;;;;;;4979437;28;20493;-93
2022/09/09 15:59:30;;;;;;;1.83;0.90;;;20.70;98.50;;;;;;4979051;28;20472;-93
2022/09/09 16:01:57;;;;;;;1.00;0.80;;;20.70;98.00;;;;;;4979747;28;20490;-94
2022/09/09 16:04:25;;;;;;;1.60;0.80;;;20.50;98.50;;;;;;4985581;28;20490;-92
2022/09/09 16:06:52;;;;;;;1.20;0.83;;;20.40;98.40;;;;;;4986602;28;20530;-92
2022/09/09 16:09:21;;;;;;;1.00;0.80;;;20.30;98.50;;;;;;4984428;28;20475;-92
2022/09/09 16:11:48;;;;;;;1.67;0.87;;;20.30;98.60;;;;;;4985607;28;20492;-93
2022/09/09 16:14:16;;;;;;;1.87;1.00;;;20.20;99.10;;;;;;4986475;28;20490;-93
2022/09/09 16:16:44;;;;;;;1.37;1.00;;;20.20;99.80;;;;;;4986425;28;20464;-94
2022/09/09 16:19:12;;;;;;;2.30;0.97;;;20.20;99.50;;;;;;4986760;28;20493;-94
2022/09/09 16:21:42;;;;;;;1.20;0.80;;;20.10;98.80;;;;;;4984233;28;20503;-94
2022/09/09 16:24:11;;;;;;;2.90;0.90;;;20.00;99.20;;;;;;4982122;28;20498;-93
2022/09/09 16:26:41;;;;;;;1.43;0.80;;;20.00;99.50;;;;;;4983425;28;20482;-94
2022/09/09 16:29:09;;;;;;;3.67;1.00;;;20.00;99.30;;;;;;4988223;28;20543;-92
2022/09/09 16:31:36;;;;;;;1.43;0.80;;;19.90;99.30;;;;;;4984645;28;20491;-95
2022/09/09 16:34:04;;;;;;;2.60;0.90;;;19.90;99.40;;;;;;4985195;28;20468;-93
2022/09/09 16:36:33;;;;;;;2.00;1.00;;;19.90;99.80;;;;;;4985400;28;20469;-91
2022/09/09 16:39:02;;;;;;;1.50;1.00;;;19.80;99.90;;;;;;4979299;28;20472;-91
2022/09/09 16:41:30;;;;;;;1.23;1.00;;;19.80;99.90;;;;;;4979587;28;20502;-94
2022/09/09 16:43:59;;;;;;;2.20;0.90;;;19.70;99.90;;;;;;4981813;28;20483;-95
2022/09/09 16:46:31;;;;;;;1.77;1.00;;;19.60;99.90;;;;;;4988494;28;20453;-94
2022/09/09 17:30:52;;;;;;;0.97;0.87;;;18.50;99.90;;;;;;3624197;23;20487;-94
2022/09/09 17:33:30;;;;;;;1.10;0.80;;;18.50;99.90;;;;;;4994415;28;20566;-94
2022/09/09 17:39:04;;;;;;;1.00;0.90;;;18.40;99.90;;;;;;4994657;28;20440;-94
2022/09/09 17:41:40;;;;;;;1.87;0.90;;;18.30;99.90;;;;;;4994687;28;20514;-95
2022/09/09 17:45:16;;;;;;;1.67;0.87;;;18.30;99.90;;;;;;4990217;28;20476;-94
2022/09/09 17:47:47;;;;;;;0.90;0.70;;;18.20;99.90;;;;;;4971972;28;20472;-90
2022/09/09 17:50:14;;;;;;;1.63;1.00;;;18.10;99.90;;;;;;4972317;28;20495;-91
2022/09/09 17:52:41;;;;;;;1.20;0.80;;;18.10;99.90;;;;;;4971654;28;20482;-90
2022/09/09 17:55:09;;;;;;;1.57;0.97;;;18.00;99.90;;;;;;4971908;28;20478;-90
2022/09/09 17:57:36;;;;;;;0.90;0.70;;;18.00;99.90;;;;;;4970030;28;20483;-91
2022/09/09 18:00:05;;;;;;;0.90;0.80;;;17.80;99.90;;;;;;4971500;28;21180;-91
2022/09/09 18:02:32;;;;;;;1.00;0.83;;;17.80;99.90;;;;;;4972661;28;20482;-91
2022/09/09 18:05:02;;;;;;;3.20;0.90;;;17.70;99.90;;;;;;4971318;28;20498;-91
2022/09/09 18:07:28;;;;;;;1.20;1.00;;;17.60;99.90;;;;;;4970962;28;20472;-90
2022/09/09 18:09:55;;;;;;;1.37;0.90;;;17.50;99.90;;;;;;4972212;28;20486;-90
2022/09/09 18:12:22;;;;;;;1.20;0.93;;;17.50;99.90;;;;;;4970391;28;20486;-91
2022/09/09 18:14:49;;;;;;;1.23;0.80;;;17.30;99.90;;;;;;4970959;28;20482;-90
2022/09/09 18:17:16;;;;;;;1.60;0.90;;;17.30;99.90;;;;;;4970347;28;21022;-91
2022/09/09 18:19:43;;;;;;;1.53;1.07;;;17.30;99.90;;;;;;4972537;28;20506;-90
2022/09/09 18:22:11;;;;;;;1.10;0.90;;;17.20;99.90;;;;;;4971302;28;20491;-91
2022/09/09 18:24:39;;;;;;;1.10;0.90;;;17.20;99.90;;;;;;4970797;28;21004;-91
2022/09/09 18:27:06;;;;;;;1.23;1.13;;;17.20;99.90;;;;;;4971267;28;20476;-92
2022/09/09 18:29:33;;;;;;;3.40;1.60;;;17.10;99.90;;;;;;4973809;28;20483;-92
2022/09/09 18:33:17;;;;;;;;;;;;;;;;;;;;;
2022/09/09 18:40:57;;;;;;;1.63;0.70;;;17.10;99.90;;;;;;5720811;23;20525;-92
2022/09/09 18:43:24;;;;;;;1.10;0.90;;;17.10;99.90;;;;;;4996668;28;20846;-91
2022/09/09 18:45:51;;;;;;;1.10;0.83;;;17.10;99.90;;;;;;4996134;28;20487;-94
2022/09/09 18:48:17;;;;;;;1.97;1.10;;;17.10;99.90;;;;;;4994645;28;20481;-93
2022/09/09 18:50:44;;;;;;;1.43;1.10;;;17.10;99.90;;;;;;4989287;28;20567;-93
